createdAt,value
2022-10-03T00:04:18.204Z,10.15
2022-10-03T00:09:52.247Z,10.13
2022-10-03T00:15:19.337Z,10.17
2022-10-03T00:20:50.761Z,10.19
2022-10-03T00:26:29.094Z,10.22
2022-10-03T00:31:51.619Z,10.22
2022-10-03T00:37:16.455Z,10.19
2022-10-03T00:42:35.879Z,10.11
2022-10-03T00:47:57.897Z,10.01
2022-10-03T00:53:33.752Z,9.92
2022-10-03T00:58:47.504Z,9.87
2022-10-03T01:04:25.121Z,9.88
2022-10-03T01:09:48.939Z,9.89
2022-10-03T01:15:30.645Z,9.95
2022-10-03T01:20:40.005Z,10.05
2022-10-03T01:25:53.220Z,10.16
2022-10-03T01:31:01.450Z,10.24
2022-10-03T01:36:23.065Z,10.29
2022-10-03T01:41:50.686Z,10.32
2022-10-03T01:47:15.871Z,10.34
2022-10-03T01:52:53.228Z,10.37
2022-10-03T01:58:08.948Z,10.37
2022-10-03T02:03:21.036Z,10.37
2022-10-03T02:08:29.027Z,10.39
2022-10-03T02:13:49.279Z,10.41
2022-10-03T02:19:11.247Z,10.43
2022-10-03T02:24:20.388Z,10.46
2022-10-03T02:29:47.773Z,10.48
2022-10-03T02:35:08.047Z,10.52
2022-10-03T02:40:30.921Z,10.56
2022-10-03T02:45:47.119Z,10.58
2022-10-03T02:51:12.375Z,10.62
2022-10-03T02:56:37.404Z,10.66
2022-10-03T03:02:17.551Z,10.69
2022-10-03T03:07:44.171Z,10.71
2022-10-03T03:13:22.146Z,10.70
2022-10-03T03:18:31.135Z,10.71
2022-10-03T03:23:53.308Z,10.71
2022-10-03T03:29:16.574Z,10.72
2022-10-03T03:34:53.574Z,10.73
2022-10-03T03:40:12.817Z,10.75
2022-10-03T03:45:31.251Z,10.75
2022-10-03T03:50:53.485Z,10.77
2022-10-03T03:56:03.925Z,10.76
2022-10-03T04:01:34.921Z,10.75
2022-10-03T04:06:51.451Z,10.73
2022-10-03T04:12:10.161Z,10.70
2022-10-03T04:18:05.809Z,10.69
2022-10-03T04:23:13.273Z,10.72
2022-10-03T04:28:39.537Z,10.71
2022-10-03T04:34:01.305Z,10.73
2022-10-03T04:39:28.119Z,10.74
2022-10-03T04:44:56.034Z,10.74
2022-10-03T04:50:12.748Z,10.75
2022-10-03T04:55:40.963Z,10.76
2022-10-03T05:01:12.507Z,10.77
2022-10-03T05:06:56.715Z,10.78
2022-10-03T05:12:08.044Z,10.77
2022-10-03T05:17:34.455Z,10.75
2022-10-03T05:22:56.570Z,10.67
2022-10-03T05:28:41.581Z,10.54
2022-10-03T05:34:10.597Z,10.45
2022-10-03T05:39:19.863Z,10.46
2022-10-03T05:44:38.519Z,10.48
2022-10-03T05:49:44.503Z,10.57
2022-10-03T05:55:04.413Z,10.68
2022-10-03T06:00:23.809Z,10.77
2022-10-03T06:05:42.048Z,10.90
2022-10-03T06:11:11.926Z,11.01
2022-10-03T06:16:33.328Z,11.00
2022-10-03T06:22:14.637Z,10.89
2022-10-03T06:27:27.127Z,10.79
2022-10-03T06:33:18.393Z,10.79
2022-10-03T06:38:46.547Z,10.77
2022-10-03T06:44:11.879Z,10.73
2022-10-03T06:49:47.058Z,10.75
2022-10-03T06:55:16.364Z,10.79
2022-10-03T07:00:21.994Z,10.82
2022-10-03T07:05:44.306Z,10.87
2022-10-03T07:11:02.239Z,10.95
2022-10-03T07:16:26.512Z,11.05
2022-10-03T07:22:12.752Z,11.18
2022-10-03T07:27:53.083Z,11.32
2022-10-03T07:33:54.240Z,11.40
2022-10-03T07:39:40.995Z,11.60
2022-10-03T07:45:22.577Z,11.86
2022-10-03T07:50:53.575Z,11.97
2022-10-03T07:56:20.886Z,12.23
2022-10-03T08:01:48.642Z,12.47
2022-10-03T08:07:11.038Z,12.62
2022-10-03T08:12:32.802Z,12.65
2022-10-03T08:17:56.472Z,12.77
2022-10-03T08:23:29.560Z,12.97
2022-10-03T08:28:45.453Z,12.97
2022-10-03T08:34:43.116Z,12.91
2022-10-03T08:40:14.466Z,12.78
2022-10-03T08:45:51.150Z,12.54
2022-10-03T08:51:17.559Z,12.43
2022-10-03T08:56:55.970Z,12.71
2022-10-03T09:02:21.513Z,12.83
2022-10-03T09:07:55.320Z,13.10
2022-10-03T09:13:20.520Z,13.36
2022-10-03T09:18:59.845Z,13.76
2022-10-03T09:24:45.453Z,13.88
2022-10-03T09:30:21.656Z,13.83
2022-10-03T09:35:51.561Z,13.66
2022-10-03T09:41:24.380Z,13.76
2022-10-03T09:47:10.673Z,13.86
2022-10-03T09:52:23.887Z,13.84
2022-10-03T09:58:19.370Z,13.94
2022-10-03T10:03:45.149Z,14.23
2022-10-03T10:09:08.856Z,14.42
2022-10-03T10:14:37.026Z,14.50
2022-10-03T10:20:05.279Z,14.44
2022-10-03T10:25:26.280Z,14.14
2022-10-03T10:30:57.739Z,13.84
2022-10-03T10:36:29.498Z,13.57
2022-10-03T10:42:14.519Z,13.39
2022-10-03T10:47:39.101Z,13.75
2022-10-03T10:53:01.043Z,14.28
2022-10-03T10:58:10.252Z,14.48
2022-10-03T11:03:41.497Z,14.47
2022-10-03T11:09:14.589Z,14.19
2022-10-03T11:14:36.282Z,14.34
2022-10-03T11:20:17.341Z,14.92
2022-10-03T11:26:02.682Z,15.13
2022-10-03T11:31:25.922Z,15.07
2022-10-03T11:37:08.344Z,14.94
2022-10-03T11:42:45.868Z,15.05
2022-10-03T11:48:14.650Z,14.95
2022-10-03T11:53:29.234Z,14.75
2022-10-03T11:58:54.986Z,14.66
2022-10-03T12:04:05.483Z,14.55
2022-10-03T12:09:32.428Z,14.31
2022-10-03T12:14:57.817Z,14.07
2022-10-03T12:20:31.160Z,13.93
2022-10-03T12:25:41.290Z,14.00
2022-10-03T12:30:47.963Z,13.95
2022-10-03T12:36:15.600Z,14.05
2022-10-03T12:41:43.177Z,14.33
2022-10-03T12:47:55.342Z,14.83
2022-10-03T12:53:24.136Z,15.40
2022-10-03T12:58:49.945Z,15.54
2022-10-03T13:04:09.025Z,15.46
2022-10-03T13:09:16.961Z,15.22
2022-10-03T13:14:40.428Z,14.89
2022-10-03T13:20:03.740Z,14.98
2022-10-03T13:26:11.894Z,15.01
2022-10-03T13:31:24.706Z,14.72
2022-10-03T13:36:40.718Z,14.50
2022-10-03T13:42:19.777Z,14.38
2022-10-03T13:47:56.135Z,14.44
2022-10-03T13:53:10.231Z,14.60
2022-10-03T13:58:23.717Z,14.69
2022-10-03T14:03:52.053Z,14.82
2022-10-03T14:09:07.301Z,14.78
2022-10-03T14:14:50.749Z,14.70
2022-10-03T14:20:34.760Z,14.66
2022-10-03T14:25:43.340Z,14.57
2022-10-03T14:31:08.269Z,14.28
2022-10-03T14:36:37.701Z,14.09
2022-10-03T14:41:56.302Z,14.05
2022-10-03T14:47:03.259Z,14.03
2022-10-03T14:52:28.729Z,13.93
2022-10-03T14:57:53.173Z,13.88
2022-10-03T15:03:33.843Z,13.70
2022-10-03T15:08:57.291Z,13.58
2022-10-03T15:14:09.600Z,13.52
2022-10-03T15:19:23.280Z,13.56
2022-10-03T15:24:31.722Z,13.59
2022-10-03T15:29:39.442Z,13.71
2022-10-03T15:34:48.952Z,13.78
2022-10-03T15:40:04.294Z,13.79
2022-10-03T15:45:08.134Z,13.90
2022-10-03T15:50:41.125Z,13.99
2022-10-03T15:55:54.259Z,14.00
2022-10-03T16:01:17.062Z,13.98
2022-10-03T16:06:26.799Z,13.88
2022-10-03T16:11:45.770Z,13.82
2022-10-03T16:17:00.885Z,13.70
2022-10-03T16:22:27.060Z,13.59
2022-10-03T16:27:32.980Z,13.37
2022-10-03T16:32:54.072Z,13.17
2022-10-03T16:38:01.139Z,12.94
2022-10-03T16:43:12.795Z,12.70
2022-10-03T16:48:46.921Z,12.50
2022-10-03T16:53:53.990Z,12.35
2022-10-03T16:59:02.259Z,12.23
2022-10-03T17:04:23.236Z,12.14
2022-10-03T17:09:51.796Z,12.05
2022-10-03T17:15:23.846Z,11.98
2022-10-03T17:20:56.375Z,11.82
2022-10-03T17:26:22.376Z,11.57
2022-10-03T17:31:44.748Z,11.38
2022-10-03T17:37:48.223Z,11.23
2022-10-03T17:43:26.634Z,11.08
2022-10-03T17:49:07.763Z,10.92
2022-10-03T17:54:26.308Z,10.80
2022-10-03T17:59:46.450Z,10.69
2022-10-03T18:04:56.413Z,10.59
2022-10-03T18:10:03.110Z,10.53
2022-10-03T18:15:11.082Z,10.47
2022-10-03T18:20:37.071Z,10.46
2022-10-03T18:26:20.898Z,10.49
2022-10-03T18:31:26.597Z,10.57
2022-10-03T18:36:39.612Z,10.66
2022-10-03T18:41:52.974Z,10.75
2022-10-03T18:47:30.566Z,10.92
2022-10-03T18:53:06.715Z,11.22
2022-10-03T18:58:26.171Z,11.47
2022-10-03T19:04:00.223Z,11.62
2022-10-03T19:09:28.656Z,11.72
2022-10-03T19:14:47.397Z,11.76
2022-10-03T19:19:59.364Z,11.78
2022-10-03T19:25:07.267Z,11.75
2022-10-03T19:30:12.393Z,11.69
2022-10-03T19:35:20.669Z,11.59
2022-10-03T19:40:43.306Z,11.46
2022-10-03T19:45:54.502Z,11.38
2022-10-03T19:51:13.360Z,11.37
2022-10-03T19:56:27.998Z,11.45
2022-10-03T20:01:45.053Z,11.51
2022-10-03T20:06:50.028Z,11.55
2022-10-03T20:12:09.818Z,11.62
2022-10-03T20:17:17.918Z,11.66
2022-10-03T20:22:26.962Z,11.65
2022-10-03T20:27:45.346Z,11.59
2022-10-03T20:32:49.690Z,11.52
2022-10-03T20:38:38.272Z,11.47
2022-10-03T20:43:54.154Z,11.43
2022-10-03T20:49:35.551Z,11.43
2022-10-03T20:55:09.519Z,11.42
2022-10-03T21:00:15.979Z,11.43
2022-10-03T21:05:34.674Z,11.41
2022-10-03T21:10:41.176Z,11.38
2022-10-03T21:15:52.167Z,11.32
2022-10-03T21:21:11.728Z,11.30
2022-10-03T21:26:22.505Z,11.30
2022-10-03T21:31:39.520Z,11.31
2022-10-03T21:36:48.963Z,11.34
2022-10-03T21:42:04.033Z,11.39
2022-10-03T21:47:31.946Z,11.42
2022-10-03T21:52:51.880Z,11.41
2022-10-03T21:58:02.879Z,11.43
2022-10-03T22:03:25.669Z,11.44
2022-10-03T22:08:36.930Z,11.41
2022-10-03T22:13:45.348Z,11.40
2022-10-03T22:19:14.938Z,11.39
2022-10-03T22:25:00.691Z,11.37
2022-10-03T22:30:07.973Z,11.36
2022-10-03T22:35:14.064Z,11.38
2022-10-03T22:40:17.807Z,11.41
2022-10-03T22:45:24.680Z,11.44
2022-10-03T22:50:32.745Z,11.44
2022-10-03T22:55:38.446Z,11.43
2022-10-03T23:00:46.877Z,11.42
2022-10-03T23:06:35.930Z,11.41
2022-10-03T23:11:42.785Z,11.40
2022-10-03T23:17:15.716Z,11.38
2022-10-03T23:22:23.682Z,11.36
2022-10-03T23:27:47.024Z,11.37
2022-10-03T23:32:50.474Z,11.38
2022-10-03T23:37:55.643Z,11.38
2022-10-03T23:43:26.870Z,11.36
2022-10-03T23:48:33.188Z,11.35
2022-10-03T23:53:47.296Z,11.34
2022-10-03T23:59:17.261Z,11.33
